Time;durP1;ratioP1;P1;durP2;ratioP2;P2;SDS_P1;SDS_P2;PMS_P1;PMS_P2;Temp;Humidity;BMP_temperature;BMP_pressure;BME280_temperature;BME280_humidity;BME280_pressure;Samples;Min_cycle;Max_cycle;Signal;HPM_P1;HPM_P2
2022/06/04 00:00:33;;;;;;;;;;;;;;;21.37;44.63;102178.34;5001755;28;19914;-93
2022/06/04 00:02:58;;;;;;;;;;;;;;;21.36;44.64;102178.34;5001026;28;20028;-93
2022/06/04 00:05:25;;;;;;;;;;;;;;;21.31;44.84;102177.50;5000918;28;19953;-93
2022/06/04 00:07:54;;;;;;;;;;;;;;;21.21;44.83;102173.16;5001246;28;19963;-93
2022/06/04 00:15:59;;;;;;;;;;;;;;;21.19;44.86;102181.03;4998208;28;19924;-93
2022/06/04 00:18:24;;;;;;;;;;;;;;;21.26;44.91;102174.91;4997428;28;19913;-95
2022/06/04 00:20:51;;;;;;;;;;;;;;;21.23;45.00;102172.31;4997529;28;19913;-93
2022/06/04 00:23:19;;;;;;;;;;;;;;;21.23;45.17;102167.06;4996915;28;20278;-94
2022/06/04 00:25:47;;;;;;;;;;;;;;;21.21;44.83;102160.97;4997871;28;20279;-94
2022/06/04 00:28:13;;;;;;;;;;;;;;;21.31;45.03;102172.25;4997442;28;19914;-94
2022/06/04 00:30:39;;;;;;;;;;;;;;;21.37;44.93;102167.88;4997362;28;19914;-95
2022/06/04 00:33:04;;;;;;;;;;;;;;;21.29;44.90;102167.03;4997933;28;19918;-94
2022/06/04 00:35:30;;;;;;;;;;;;;;;21.26;44.98;102164.44;4998108;28;19914;-93
2022/06/04 00:37:55;;;;;;;;;;;;;;;21.28;44.97;102165.28;4982113;28;19926;-94
2022/06/04 00:40:30;;;;;;;;;;;;;;;21.25;45.08;102167.03;5007624;28;19925;-93
2022/06/04 00:42:56;;;;;;;;;;;;;;;21.26;44.88;102174.91;5009047;28;19918;-92
2022/06/04 00:45:21;;;;;;;;;;;;;;;21.30;44.94;102179.25;5009643;28;19936;-92
2022/06/04 00:47:47;;;;;;;;;;;;;;;21.25;44.78;102174.91;5005709;28;19972;-93
2022/06/04 00:50:14;;;;;;;;;;;;;;;21.23;45.02;102176.66;4998088;28;19914;-94
2022/06/04 00:52:41;;;;;;;;;;;;;;;21.21;45.14;102181.91;4996511;28;19953;-95
2022/06/04 00:55:07;;;;;;;;;;;;;;;21.15;45.05;102185.41;4980879;28;20025;-93
2022/06/04 00:57:43;;;;;;;;;;;;;;;21.21;45.12;102183.63;4980638;28;20378;-94
2022/06/04 01:00:15;;;;;;;;;;;;;;;21.20;44.97;102179.28;4996692;28;19920;-94
2022/06/04 01:02:56;;;;;;;;;;;;;;;21.18;45.30;102184.53;4997897;28;20009;-93
2022/06/04 01:05:30;;;;;;;;;;;;;;;21.29;45.08;102181.88;4997547;28;19914;-93
2022/06/04 01:07:58;;;;;;;;;;;;;;;21.27;45.14;102174.00;4996713;28;19914;-93
2022/06/04 01:10:34;;;;;;;;;;;;;;;21.25;45.16;102175.78;4997506;28;19944;-93
2022/06/04 01:13:17;;;;;;;;;;;;;;;21.13;45.28;102179.31;4996436;28;19918;-93
2022/06/04 01:15:49;;;;;;;;;;;;;;;21.10;45.21;102174.09;4996513;28;19960;-93
2022/06/04 01:18:20;;;;;;;;;;;;;;;21.18;45.19;102174.03;4996279;28;19914;-93
2022/06/04 01:20:51;;;;;;;;;;;;;;;21.16;45.21;102167.94;4996489;28;19918;-95
2022/06/04 01:23:40;;;;;;;;;;;;;;;21.10;45.30;102171.47;4996557;28;19915;-93
2022/06/04 01:26:24;;;;;;;;;;;;;;;21.14;45.28;102178.44;4978190;28;19945;-94
2022/06/04 01:28:56;;;;;;;;;;;;;;;21.07;45.38;102166.22;4996317;28;19961;-94
2022/06/04 01:31:25;;;;;;;;;;;;;;;21.06;45.33;102164.50;4997240;28;20012;-87
2022/06/04 01:33:53;;;;;;;;;;;;;;;21.08;45.37;102167.13;4995179;28;19918;-87
2022/06/04 01:36:24;;;;;;;;;;;;;;;21.11;45.36;102167.09;4994433;28;20365;-86
2022/06/04 01:38:53;;;;;;;;;;;;;;;21.09;45.25;102171.47;4995964;28;19999;-86
2022/06/04 01:41:37;;;;;;;;;;;;;;;21.15;45.25;102181.94;4994523;28;19936;-87
2022/06/04 01:44:09;;;;;;;;;;;;;;;21.24;45.14;102183.66;4994259;28;19956;-87
2022/06/04 01:46:46;;;;;;;;;;;;;;;21.19;45.15;102183.66;4994232;28;19953;-86
2022/06/04 01:49:21;;;;;;;;;;;;;;;21.24;45.15;102194.13;4994277;28;20396;-87
2022/06/04 01:52:01;;;;;;;;;;;;;;;21.15;45.11;102190.63;4994402;28;20285;-90
2022/06/04 01:54:30;;;;;;;;;;;;;;;21.22;45.17;102196.72;4995671;28;19920;-86
2022/06/04 01:57:18;;;;;;;;;;;;;;;21.14;45.17;102204.63;4994001;28;19924;-87
2022/06/04 01:59:45;;;;;;;;;;;;;;;21.13;45.42;102196.75;4993925;28;19973;-87
2022/06/04 02:02:14;;;;;;;;;;;;;;;21.12;45.45;102206.38;4994291;28;19914;-87
2022/06/04 02:04:41;;;;;;;;;;;;;;;21.06;45.55;102202.91;4993949;28;19921;-86
2022/06/04 02:07:32;;;;;;;;;;;;;;;21.14;45.45;102201.09;4994184;28;20270;-86
2022/06/04 02:10:18;;;;;;;;;;;;;;;21.22;45.36;102204.59;4994026;28;19922;-86
2022/06/04 02:12:45;;;;;;;;;;;;;;;21.14;45.37;102198.50;4993924;28;19918;-87
2022/06/04 02:15:12;;;;;;;;;;;;;;;21.19;45.57;102211.56;4994346;28;19914;-86
2022/06/04 02:17:39;;;;;;;;;;;;;;;21.25;45.21;102212.44;4994321;28;19921;-87
2022/06/04 02:20:04;;;;;;;;;;;;;;;21.23;45.38;102211.56;4994152;28;20335;-86
2022/06/04 02:22:31;;;;;;;;;;;;;;;21.20;45.30;102203.72;4977808;28;19918;-86
2022/06/04 02:24:59;;;;;;;;;;;;;;;21.18;45.25;102192.38;4994092;28;19956;-85
2022/06/04 02:27:24;;;;;;;;;;;;;;;21.21;45.37;102188.88;4994169;28;19921;-87
2022/06/04 02:29:49;;;;;;;;;;;;;;;21.14;45.49;102190.63;4994137;28;19918;-87
2022/06/04 02:32:53;;;;;;;;;;;;;;;21.17;45.42;102188.88;4993847;28;19921;-87
2022/06/04 02:35:41;;;;;;;;;;;;;;;21.17;45.49;102191.50;4994821;28;20333;-87
2022/06/04 02:38:10;;;;;;;;;;;;;;;21.21;45.43;102187.16;4975710;28;19914;-86
2022/06/04 02:40:44;;;;;;;;;;;;;;;21.22;45.33;102201.09;4993685;28;19924;-88
2022/06/04 02:43:09;;;;;;;;;;;;;;;21.29;45.23;102200.19;4993600;28;19918;-87
2022/06/04 02:45:39;;;;;;;;;;;;;;;21.29;45.31;102193.19;4996132;28;19914;-87
2022/06/04 02:48:13;;;;;;;;;;;;;;;21.30;45.27;102194.09;4998816;28;19957;-87
2022/06/04 02:50:42;;;;;;;;;;;;;;;21.23;45.35;102197.59;4997701;28;19921;-87
2022/06/04 02:53:08;;;;;;;;;;;;;;;21.24;45.22;102196.72;4997689;28;19972;-87
2022/06/04 02:55:40;;;;;;;;;;;;;;;21.26;45.21;102197.59;4997754;28;19961;-87
2022/06/04 02:58:09;;;;;;;;;;;;;;;21.28;45.21;102194.09;4997368;28;19913;-87
2022/06/04 03:00:35;;;;;;;;;;;;;;;21.28;45.35;102194.09;4998713;28;20008;-86
2022/06/04 03:03:00;;;;;;;;;;;;;;;21.28;45.18;102190.63;4997357;28;19964;-84
2022/06/04 03:05:27;;;;;;;;;;;;;;;21.20;45.26;102189.75;4981163;28;19918;-86
2022/06/04 03:07:57;;;;;;;;;;;;;;;21.19;45.47;102198.47;4997469;28;20015;-86
2022/06/04 03:10:27;;;;;;;;;;;;;;;21.23;45.21;102193.25;4996944;28;20285;-86
2022/06/04 03:12:52;;;;;;;;;;;;;;;21.23;45.28;102198.50;4996941;28;20059;-85
2022/06/04 03:15:18;;;;;;;;;;;;;;;21.22;45.38;102186.25;4997664;28;19945;-86
2022/06/04 03:17:45;;;;;;;;;;;;;;;21.25;45.59;102182.75;4997372;28;19914;-86
2022/06/04 03:20:11;;;;;;;;;;;;;;;21.24;45.49;102183.66;4997231;28;20004;-86
2022/06/04 03:22:36;;;;;;;;;;;;;;;21.14;45.47;102188.91;4998735;28;20277;-87
2022/06/04 03:25:02;;;;;;;;;;;;;;;21.14;45.27;102183.69;4980915;28;19918;-87
2022/06/04 03:27:27;;;;;;;;;;;;;;;21.13;45.13;102191.53;4980971;28;19918;-87
2022/06/04 03:29:52;;;;;;;;;;;;;;;21.19;45.33;102170.56;4997154;28;20016;-86
2022/06/04 03:32:18;;;;;;;;;;;;;;;21.12;45.31;102169.72;4980925;28;20298;-86
2022/06/04 03:34:43;;;;;;;;;;;;;;;21.06;45.48;102174.97;4980715;28;19922;-85
2022/06/04 03:37:16;;;;;;;;;;;;;;;21.04;45.29;102166.25;4997088;28;19921;-86
2022/06/04 03:39:41;;;;;;;;;;;;;;;21.07;45.39;102168.84;4996798;28;19962;-87
2022/06/04 03:42:07;;;;;;;;;;;;;;;21.14;45.43;102180.16;4980456;28;19945;-86
2022/06/04 03:44:32;;;;;;;;;;;;;;;21.04;45.40;102179.34;4996799;28;20045;-87
2022/06/04 03:46:57;;;;;;;;;;;;;;;21.02;45.33;102180.22;4980683;28;20322;-87
2022/06/04 03:49:23;;;;;;;;;;;;;;;21.01;45.46;102187.19;4996583;28;20005;-87
2022/06/04 03:51:48;;;;;;;;;;;;;;;21.04;45.56;102192.41;4980207;28;19918;-86
2022/06/04 03:54:14;;;;;;;;;;;;;;;21.01;45.37;102188.94;4996485;28;20008;-87
2022/06/04 03:56:39;;;;;;;;;;;;;;;20.96;45.27;102192.44;4979930;28;19918;-86
2022/06/04 03:59:04;;;;;;;;;;;;;;;20.93;45.43;102191.59;4996972;28;20008;-87
2022/06/04 04:01:30;;;;;;;;;;;;;;;20.93;45.52;102196.81;4996590;28;20373;-87
2022/06/04 04:04:06;;;;;;;;;;;;;;;20.94;45.53;102202.03;4999662;28;19914;-91
2022/06/04 04:06:32;;;;;;;;;;;;;;;20.97;45.51;102198.56;4997264;28;20001;-86
2022/06/04 04:08:58;;;;;;;;;;;;;;;20.95;45.28;102203.78;4997023;28;19913;-87
2022/06/04 04:11:25;;;;;;;;;;;;;;;20.98;45.30;102208.13;4980513;28;19926;-86
2022/06/04 04:13:51;;;;;;;;;;;;;;;20.95;45.37;102203.78;4997358;28;19981;-87
2022/06/04 04:16:17;;;;;;;;;;;;;;;20.89;45.43;102203.78;4997524;28;19918;-86
2022/06/04 04:18:42;;;;;;;;;;;;;;;20.98;45.21;102202.91;4996112;28;19914;-87
2022/06/04 04:21:23;;;;;;;;;;;;;;;20.98;45.22;102196.81;4995984;28;19913;-87
2022/06/04 04:23:49;;;;;;;;;;;;;;;21.02;45.28;102195.94;4979549;28;19918;-87
2022/06/04 04:26:32;;;;;;;;;;;;;;;;;;;;;
2022/06/04 04:28:57;;;;;;;;;;;;;;;20.96;45.09;102192.44;4997585;28;20380;-86
2022/06/04 04:31:23;;;;;;;;;;;;;;;20.91;45.18;102203.78;4979537;28;20000;-86
2022/06/04 04:33:48;;;;;;;;;;;;;;;20.98;45.26;102204.66;4995597;28;19918;-86
2022/06/04 04:36:13;;;;;;;;;;;;;;;20.98;45.32;102210.75;4995950;28;19917;-86
2022/06/04 04:38:38;;;;;;;;;;;;;;;21.02;45.20;102195.94;4995286;28;19968;-86
2022/06/04 04:41:11;;;;;;;;;;;;;;;21.00;45.21;102195.06;4979585;28;19949;-87
2022/06/04 04:43:37;;;;;;;;;;;;;;;21.03;45.14;102187.19;4995968;28;19952;-86
2022/06/04 04:46:04;;;;;;;;;;;;;;;21.00;45.18;102189.81;4995378;28;20405;-86
2022/06/04 04:48:30;;;;;;;;;;;;;;;21.03;45.12;102182.81;4995746;28;19914;-87
2022/06/04 04:50:55;;;;;;;;;;;;;;;21.11;45.11;102193.28;5004174;28;19944;-82
2022/06/04 04:53:20;;;;;;;;;;;;;;;21.07;44.87;102188.91;4996358;28;19988;-84
2022/06/04 04:55:46;;;;;;;;;;;;;;;21.02;45.00;102196.78;4995642;28;19925;-84
2022/06/04 04:58:12;;;;;;;;;;;;;;;21.08;45.18;102188.94;4995425;28;19913;-85
2022/06/04 05:00:37;;;;;;;;;;;;;;;21.23;45.36;102187.13;4979370;28;19918;-81
2022/06/04 05:03:03;;;;;;;;;;;;;;;21.32;45.21;102194.97;4995231;28;20281;-83
2022/06/04 05:05:28;;;;;;;;;;;;;;;21.34;44.99;102181.00;4995578;28;20254;-84
2022/06/04 05:07:54;;;;;;;;;;;;;;;21.36;44.84;102179.22;4995608;28;20396;-86
2022/06/04 05:10:20;;;;;;;;;;;;;;;21.38;44.67;102187.06;4995116;28;20036;-85
2022/06/04 05:12:49;;;;;;;;;;;;;;;21.40;44.87;102192.31;4996478;28;19917;-86
2022/06/04 05:15:15;;;;;;;;;;;;;;;21.37;44.83;102204.53;4998482;28;19914;-86
2022/06/04 05:17:41;;;;;;;;;;;;;;;21.36;44.63;102200.19;4980901;28;19922;-86
2022/06/04 05:20:06;;;;;;;;;;;;;;;21.34;44.59;102199.31;4980715;28;19924;-84
2022/06/04 05:22:32;;;;;;;;;;;;;;;21.37;44.50;102193.19;4996822;28;20342;-85
2022/06/04 05:24:57;;;;;;;;;;;;;;;21.35;44.58;102208.03;4996223;28;20297;-84
2022/06/04 05:27:23;;;;;;;;;;;;;;;21.33;44.41;102201.94;4978801;28;19918;-85
2022/06/04 05:29:48;;;;;;;;;;;;;;;21.31;44.24;102204.53;4996128;28;19913;-85
2022/06/04 05:32:13;;;;;;;;;;;;;;;21.31;44.38;102201.06;4995002;28;20016;-84
2022/06/04 05:34:38;;;;;;;;;;;;;;;21.35;44.25;102219.38;4994701;28;19925;-84
2022/06/04 05:37:05;;;;;;;;;;;;;;;21.40;44.16;102200.16;4994413;28;19980;-85
2022/06/04 05:39:33;;;;;;;;;;;;;;;21.42;43.92;102203.69;4994561;28;20337;-84
2022/06/04 05:41:59;;;;;;;;;;;;;;;21.45;43.99;102201.94;4995729;28;19965;-84
2022/06/04 05:44:24;;;;;;;;;;;;;;;21.48;43.61;102212.38;4994357;28;19993;-84
2022/06/04 05:46:49;;;;;;;;;;;;;;;21.50;43.52;102217.63;4994571;28;19920;-85
2022/06/04 05:49:15;;;;;;;;;;;;;;;21.52;43.28;102221.09;4994444;28;20298;-84
2022/06/04 05:51:41;;;;;;;;;;;;;;;21.55;42.79;102226.31;4994496;28;19914;-85
2022/06/04 05:54:07;;;;;;;;;;;;;;;21.55;42.82;102221.94;4994184;28;19917;-85
2022/06/04 05:56:34;;;;;;;;;;;;;;;21.53;43.01;102218.44;4994311;28;20262;-85
2022/06/04 05:59:00;;;;;;;;;;;;;;;21.60;42.82;102236.78;4994222;28;19920;-82
2022/06/04 06:01:26;;;;;;;;;;;;;;;21.69;42.07;102242.84;4994275;28;19918;-85
2022/06/04 06:03:52;;;;;;;;;;;;;;;21.64;42.29;102241.13;4993940;28;20377;-81
2022/06/04 06:06:19;;;;;;;;;;;;;;;21.80;41.89;102236.66;4993907;28;19920;-77
2022/06/04 06:08:45;;;;;;;;;;;;;;;21.87;41.75;102226.16;4995251;28;19968;-78
2022/06/04 06:11:11;;;;;;;;;;;;;;;21.82;41.79;102238.44;5012896;28;19921;-77
2022/06/04 06:13:37;;;;;;;;;;;;;;;21.87;41.86;102230.53;4997049;28;20434;-77
2022/06/04 06:16:06;;;;;;;;;;;;;;;21.93;41.49;102234.00;4996958;28;19981;-77
2022/06/04 06:18:32;;;;;;;;;;;;;;;21.90;41.54;102238.38;5014620;28;19913;-77
2022/06/04 06:20:58;;;;;;;;;;;;;;;21.91;41.59;102254.09;5014105;28;19913;-77
2022/06/04 06:23:24;;;;;;;;;;;;;;;21.89;41.54;102231.41;5014434;28;20012;-76
2022/06/04 06:25:51;;;;;;;;;;;;;;;21.80;41.60;102234.94;4980662;28;20492;-76
2022/06/04 06:28:16;;;;;;;;;;;;;;;21.76;41.57;102239.31;4996948;28;19917;-79
2022/06/04 06:30:42;;;;;;;;;;;;;;;21.73;41.44;102239.34;4997234;28;19980;-77
2022/06/04 06:33:08;;;;;;;;;;;;;;;21.71;41.78;102240.22;4996894;28;19964;-77
2022/06/04 06:35:34;;;;;;;;;;;;;;;21.67;41.45;102256.84;4996952;28;19921;-76
2022/06/04 06:37:59;;;;;;;;;;;;;;;21.64;41.70;102244.59;5014858;28;19964;-78
2022/06/04 06:40:24;;;;;;;;;;;;;;;21.60;41.65;102256.00;5014515;28;19918;-77
2022/06/04 06:42:49;;;;;;;;;;;;;;;21.60;41.73;102249.88;5014446;28;19984;-77
2022/06/04 06:45:14;;;;;;;;;;;;;;;21.59;41.57;102251.63;5014342;28;19971;-76
2022/06/04 06:47:40;;;;;;;;;;;;;;;21.57;41.68;102249.00;4996696;28;19913;-76
2022/06/04 06:50:06;;;;;;;;;;;;;;;21.58;41.80;102252.50;4996769;28;19922;-76
2022/06/04 06:52:31;;;;;;;;;;;;;;;21.57;42.02;102251.63;4996495;28;19953;-77
2022/06/04 06:54:57;;;;;;;;;;;;;;;21.56;41.96;102257.75;5014234;28;19925;-76
2022/06/04 06:57:22;;;;;;;;;;;;;;;21.53;42.13;102260.38;5014317;28;19984;-76
2022/06/04 06:59:48;;;;;;;;;;;;;;;21.46;42.10;102263.88;4996642;28;20353;-77
2022/06/04 07:02:14;;;;;;;;;;;;;;;21.46;41.92;102253.41;4995783;28;19917;-77
2022/06/04 07:04:39;;;;;;;;;;;;;;;21.39;41.99;102250.81;5012756;28;20012;-77
2022/06/04 07:07:05;;;;;;;;;;;;;;;21.34;42.08;102262.16;5013893;28;20000;-76
2022/06/04 07:09:31;;;;;;;;;;;;;;;21.33;42.02;102262.16;4996439;28;19948;-78
2022/06/04 07:11:57;;;;;;;;;;;;;;;21.28;42.07;102267.41;4996408;28;19967;-78
2022/06/04 07:14:23;;;;;;;;;;;;;;;21.21;42.09;102260.44;4996201;28;19921;-77
2022/06/04 07:16:48;;;;;;;;;;;;;;;21.27;42.24;102265.66;4996402;28;19914;-78
2022/06/04 07:19:14;;;;;;;;;;;;;;;21.29;42.11;102263.03;4996221;28;19914;-78
2022/06/04 07:21:40;;;;;;;;;;;;;;;21.28;42.12;102262.16;5013915;28;19920;-78
2022/06/04 07:24:06;;;;;;;;;;;;;;;21.26;42.16;102261.28;4980021;28;20377;-79
2022/06/04 07:26:32;;;;;;;;;;;;;;;21.30;42.67;102272.66;5013966;28;19923;-82
2022/06/04 07:28:57;;;;;;;;;;;;;;;21.26;43.18;102276.16;5013962;28;19953;-80
2022/06/04 07:31:22;;;;;;;;;;;;;;;21.24;43.65;102278.75;5014271;28;20404;-81
2022/06/04 07:33:49;;;;;;;;;;;;;;;21.33;43.50;102267.38;5000047;28;20289;-81
2022/06/04 07:36:14;;;;;;;;;;;;;;;21.32;44.63;102271.75;5018513;28;20370;-80
2022/06/04 07:38:40;;;;;;;;;;;;;;;21.32;44.30;102265.66;5033506;28;19936;-90
2022/06/04 07:41:05;;;;;;;;;;;;;;;21.33;44.18;102263.00;5012505;28;19924;-93
2022/06/04 07:43:30;;;;;;;;;;;;;;;21.37;44.63;102261.28;5000300;28;20282;-78
2022/06/04 07:45:55;;;;;;;;;;;;;;;21.34;44.58;102269.16;5017413;28;20020;-76
2022/06/04 07:48:21;;;;;;;;;;;;;;;21.29;44.14;102265.66;4999753;28;19918;-77
2022/06/04 07:50:46;;;;;;;;;;;;;;;21.33;44.27;102273.50;5000144;28;20365;-79
2022/06/04 07:53:11;;;;;;;;;;;;;;;21.30;44.35;102272.66;5017022;28;19984;-79
2022/06/04 07:55:38;;;;;;;;;;;;;;;21.33;44.25;102272.63;5016983;28;19967;-81
2022/06/04 07:58:03;;;;;;;;;;;;;;;21.30;44.37;102265.66;5017026;28;19913;-79
2022/06/04 08:00:28;;;;;;;;;;;;;;;21.30;44.45;102262.19;5017214;28;20016;-82
2022/06/04 08:02:53;;;;;;;;;;;;;;;21.33;44.45;102251.69;5017178;28;19913;-79
2022/06/04 08:05:19;;;;;;;;;;;;;;;21.31;44.58;102249.06;4999353;28;20270;-77
2022/06/04 08:07:44;;;;;;;;;;;;;;;21.26;44.69;102250.81;4999097;28;20011;-78
2022/06/04 08:10:10;;;;;;;;;;;;;;;21.36;44.59;102243.81;5016697;28;20329;-76
2022/06/04 08:12:40;;;;;;;;;;;;;;;21.36;44.70;102246.41;4999131;28;19921;-76
2022/06/04 08:15:06;;;;;;;;;;;;;;;21.39;44.59;102243.81;5016987;28;19921;-76
2022/06/04 08:17:31;;;;;;;;;;;;;;;21.37;44.25;102253.41;4998863;28;20312;-76
2022/06/04 08:19:57;;;;;;;;;;;;;;;21.35;44.26;102252.56;5016447;28;19917;-76
2022/06/04 08:22:22;;;;;;;;;;;;;;;21.41;44.43;102244.72;5016451;28;19925;-76
2022/06/04 08:24:48;;;;;;;;;;;;;;;21.40;44.21;102245.53;4998760;28;19917;-76
2022/06/04 08:27:14;;;;;;;;;;;;;;;21.41;44.23;102249.94;4998669;28;19917;-77
2022/06/04 08:29:39;;;;;;;;;;;;;;;21.39;44.18;102258.66;5016371;28;19936;-76
2022/06/04 08:32:05;;;;;;;;;;;;;;;21.42;44.22;102256.06;5016336;28;20448;-79
2022/06/04 08:34:31;;;;;;;;;;;;;;;21.48;44.31;102261.28;4998542;28;20007;-78
2022/06/04 08:36:56;;;;;;;;;;;;;;;;;;5016233;28;20369;-77
2022/06/04 08:39:21;;;;;;;;;;;;;;;21.44;44.33;102263.03;4998600;28;19935;-77
2022/06/04 08:41:58;;;;;;;;;;;;;;;21.47;44.19;102268.28;4998454;28;19917;-78
2022/06/04 08:44:41;;;;;;;;;;;;;;;21.50;44.24;102272.63;5015820;28;20011;-77
2022/06/04 08:47:09;;;;;;;;;;;;;;;21.47;43.98;102276.13;5015989;28;20336;-77
2022/06/04 08:49:37;;;;;;;;;;;;;;;21.50;44.24;102281.34;4998507;28;20004;-77
2022/06/04 08:52:09;;;;;;;;;;;;;;;21.55;44.29;102286.56;4998406;28;20452;-77
2022/06/04 08:57:35;;;;;;;;;;;;;;;21.53;44.06;102293.56;5016229;28;19960;-77
2022/06/04 09:00:04;;;;;;;;;;;;;;;21.57;44.56;102290.91;5015988;28;19914;-77
2022/06/04 09:02:52;;;;;;;;;;;;;;;21.61;44.15;102294.41;4998421;28;19935;-77
2022/06/04 09:05:20;;;;;;;;;;;;;;;21.57;44.11;102297.91;5016042;28;19963;-78
2022/06/04 09:07:49;;;;;;;;;;;;;;;21.55;43.98;102299.66;5015461;28;19917;-78
2022/06/04 09:10:24;;;;;;;;;;;;;;;21.51;44.01;102296.19;4997928;28;20270;-78
2022/06/04 09:12:49;;;;;;;;;;;;;;;21.57;44.19;102303.16;4998182;28;20025;-78
2022/06/04 09:15:18;;;;;;;;;;;;;;;21.57;43.96;102305.75;4998140;28;19917;-77
2022/06/04 09:17:43;;;;;;;;;;;;;;;21.57;44.19;102305.75;4997989;28;19917;-77
2022/06/04 09:20:23;;;;;;;;;;;;;;;21.57;44.03;102304.00;4997530;28;19913;-78
2022/06/04 09:22:51;;;;;;;;;;;;;;;21.56;43.92;102302.28;5015101;28;20007;-78
2022/06/04 09:25:20;;;;;;;;;;;;;;;21.56;44.06;102294.44;4997914;28;20003;-94
2022/06/04 09:27:55;;;;;;;;;;;;;;;21.57;44.08;102304.00;4999022;28;19920;-88
2022/06/04 09:30:32;;;;;;;;;;;;;;;21.59;44.06;102316.25;4998495;28;20013;-87
2022/06/04 09:32:57;;;;;;;;;;;;;;;21.54;43.88;102311.03;4997890;28;19918;-88
2022/06/04 09:35:25;;;;;;;;;;;;;;;21.52;43.92;102312.78;5015813;28;19913;-86
2022/06/04 09:37:50;;;;;;;;;;;;;;;21.51;43.82;102309.28;4997720;28;19920;-87
2022/06/04 09:40:24;;;;;;;;;;;;;;;21.48;43.80;102313.66;5016131;28;19917;-87
2022/06/04 09:42:49;;;;;;;;;;;;;;;21.48;43.57;102309.28;5015507;28;19921;-89
2022/06/04 09:45:20;;;;;;;;;;;;;;;21.56;43.97;102312.75;4998827;28;19918;-88
2022/06/04 09:47:48;;;;;;;;;;;;;;;21.55;44.53;102316.25;4998175;28;19924;-87
2022/06/04 09:50:22;;;;;;;;;;;;;;;21.58;43.84;102315.38;4997927;28;20269;-88
2022/06/04 09:53:15;;;;;;;;;;;;;;;21.61;43.83;102310.13;4998231;28;20325;-86
2022/06/04 09:55:45;;;;;;;;;;;;;;;21.61;43.69;102314.50;4997172;28;19992;-87
2022/06/04 09:58:24;;;;;;;;;;;;;;;21.63;43.63;102304.88;5015576;28;19914;-87
2022/06/04 10:01:00;;;;;;;;;;;;;;;21.66;43.62;102302.25;4997693;28;20008;-87
2022/06/04 10:03:27;;;;;;;;;;;;;;;21.64;43.35;102304.88;4997435;28;19914;-87
2022/06/04 10:06:00;;;;;;;;;;;;;;;21.66;43.58;102308.34;4997366;28;20422;-87
2022/06/04 10:08:26;;;;;;;;;;;;;;;21.67;43.43;102299.63;4997371;28;19965;-87
2022/06/04 10:11:05;;;;;;;;;;;;;;;21.68;43.48;102301.34;5014783;28;19943;-87
2022/06/04 10:13:44;;;;;;;;;;;;;;;21.70;43.66;102296.13;4997010;28;20343;-87
2022/06/04 10:16:29;;;;;;;;;;;;;;;21.70;43.35;102296.13;4997459;28;20285;-87
2022/06/04 10:19:00;;;;;;;;;;;;;;;21.75;43.49;102289.09;5014913;28;19913;-85
2022/06/04 10:21:28;;;;;;;;;;;;;;;21.71;43.11;102297.84;4997421;28;19913;-87
2022/06/04 10:23:54;;;;;;;;;;;;;;;21.67;43.30;102299.63;4997133;28;19913;-86
2022/06/04 10:26:23;;;;;;;;;;;;;;;21.71;43.92;102303.09;4997035;28;19913;-87
2022/06/04 10:28:55;;;;;;;;;;;;;;;21.73;43.22;102303.94;4997371;28;19920;-86
2022/06/04 10:31:28;;;;;;;;;;;;;;;21.77;43.80;102310.94;4996755;28;21542;-86
2022/06/04 10:34:03;;;;;;;;;;;;;;;21.78;42.92;102312.69;4997082;28;20281;-86
2022/06/04 10:36:31;;;;;;;;;;;;;;;21.78;42.60;102303.06;5014833;28;19913;-86
2022/06/04 10:39:00;;;;;;;;;;;;;;;21.82;43.50;102303.03;4997085;28;19920;-87
2022/06/04 10:41:39;;;;;;;;;;;;;;;21.82;42.76;102300.44;4997212;28;19935;-83
2022/06/04 10:44:20;;;;;;;;;;;;;;;21.86;42.31;102304.78;5014756;28;19976;-86
2022/06/04 10:46:55;;;;;;;;;;;;;;;21.86;42.66;102297.81;5014584;28;20361;-85
2022/06/04 10:49:39;;;;;;;;;;;;;;;21.84;42.39;102294.34;4996907;28;20389;-87
2022/06/04 10:52:23;;;;;;;;;;;;;;;21.78;42.46;102289.09;4996451;28;19963;-80
2022/06/04 10:55:01;;;;;;;;;;;;;;;21.83;42.40;102294.31;4996536;28;19917;-80
2022/06/04 10:57:29;;;;;;;;;;;;;;;21.81;42.81;102293.47;5014311;28;19914;-80
2022/06/04 11:00:04;;;;;;;;;;;;;;;21.81;43.02;102293.47;5014182;28;19914;-81
2022/06/04 11:02:49;;;;;;;;;;;;;;;21.77;42.56;102274.25;4996494;28;20026;-80
2022/06/04 11:05:19;;;;;;;;;;;;;;;21.74;42.53;102283.00;5014127;28;20015;-80
2022/06/04 11:07:53;;;;;;;;;;;;;;;21.77;43.07;102285.63;5018162;28;19917;-80
2022/06/04 11:10:39;;;;;;;;;;;;;;;21.75;42.69;102286.47;5000126;28;20016;-80
2022/06/04 11:13:10;;;;;;;;;;;;;;;21.77;42.87;102285.63;5000238;28;20000;-80
2022/06/04 11:15:38;;;;;;;;;;;;;;;21.83;43.12;102289.09;5017857;28;19980;-81
2022/06/04 11:18:15;;;;;;;;;;;;;;;21.82;42.53;102289.94;5018063;28;19920;-80
2022/06/04 11:20:59;;;;;;;;;;;;;;;21.82;42.71;102290.84;5000154;28;20357;-81
2022/06/04 11:23:33;;;;;;;;;;;;;;;21.85;42.97;102280.34;5001687;28;19920;-82
2022/06/04 11:26:09;;;;;;;;;;;;;;;21.85;41.92;102280.34;4999975;28;19914;-80
2022/06/04 11:28:37;;;;;;;;;;;;;;;21.80;42.62;102281.22;5017393;28;19960;-82
2022/06/04 11:31:11;;;;;;;;;;;;;;;21.78;42.57;102276.00;4999984;28;19964;-82
2022/06/04 11:33:55;;;;;;;;;;;;;;;21.82;42.47;102282.09;5000017;28;20003;-81
2022/06/04 11:36:39;;;;;;;;;;;;;;;21.85;42.85;102282.94;4999971;28;20280;-81
2022/06/04 11:39:04;;;;;;;;;;;;;;;21.85;42.59;102271.59;4999772;28;20385;-79
2022/06/04 11:41:41;;;;;;;;;;;;;;;21.88;42.84;102280.31;4999420;28;19913;-80
2022/06/04 11:44:07;;;;;;;;;;;;;;;21.84;42.93;102273.38;4999703;28;19914;-81
2022/06/04 11:46:48;;;;;;;;;;;;;;;21.81;42.83;102275.97;4999564;28;19913;-81
2022/06/04 11:49:32;;;;;;;;;;;;;;;21.80;42.62;102284.75;4999842;28;20016;-80
2022/06/04 11:51:57;;;;;;;;;;;;;;;21.78;42.58;102281.25;4999667;28;19917;-80
2022/06/04 11:54:25;;;;;;;;;;;;;;;21.80;42.70;102281.22;4999511;28;20281;-79
2022/06/04 11:57:03;;;;;;;;;;;;;;;21.77;42.29;102277.75;4999577;28;20362;-81
2022/06/04 11:59:40;;;;;;;;;;;;;;;21.77;42.22;102287.34;5017027;28;20385;-80
2022/06/04 12:02:13;;;;;;;;;;;;;;;21.75;42.44;102289.09;5017171;28;19914;-79
2022/06/04 12:04:47;;;;;;;;;;;;;;;21.76;43.00;102283.88;4999356;28;20400;-81
2022/06/04 12:07:24;;;;;;;;;;;;;;;21.81;42.97;102285.59;4999145;28;19913;-80
2022/06/04 12:10:25;;;;;;;;;;;;;;;21.80;42.57;102289.06;4995762;28;19921;-80
2022/06/04 12:12:56;;;;;;;;;;;;;;;21.84;42.96;102277.72;4975567;28;19968;-80
2022/06/04 12:15:31;;;;;;;;;;;;;;;21.84;43.09;102282.94;4993512;28;19914;-80
2022/06/04 12:17:59;;;;;;;;;;;;;;;21.83;42.61;102296.94;4996743;28;19921;-80
2022/06/04 12:26:40;;;;;;;;;;;;;;;21.78;42.82;102287.34;4998020;28;19972;-81
2022/06/04 12:29:33;;;;;;;;;;;;;;;21.78;43.25;102281.25;4995134;28;19949;-81
2022/06/04 12:31:59;;;;;;;;;;;;;;;21.80;42.59;102281.22;4997274;28;20314;-81
2022/06/04 12:34:35;;;;;;;;;;;;;;;21.76;42.78;102278.63;4997631;28;19918;-82
2022/06/04 12:37:02;;;;;;;;;;;;;;;21.76;42.61;102269.91;4998222;28;20453;-82
2022/06/04 12:39:40;;;;;;;;;;;;;;;21.76;42.92;102273.38;4996946;28;19961;-81
2022/06/04 12:42:21;;;;;;;;;;;;;;;21.76;42.64;102272.53;4997038;28;20332;-81
2022/06/04 12:44:57;;;;;;;;;;;;;;;21.76;42.87;102270.75;4995511;28;19913;-82
2022/06/04 12:47:24;;;;;;;;;;;;;;;21.78;42.96;102270.75;4995281;28;20028;-79
2022/06/04 12:49:52;;;;;;;;;;;;;;;21.78;42.78;102265.53;4996788;28;20275;-80
2022/06/04 12:52:17;;;;;;;;;;;;;;;21.79;43.15;102259.38;4996669;28;19920;-80
2022/06/04 12:54:52;;;;;;;;;;;;;;;21.75;42.66;102262.91;4996749;28;19914;-80
2022/06/04 12:57:32;;;;;;;;;;;;;;;21.74;42.74;102266.41;4995495;28;19956;-80
2022/06/04 13:00:10;;;;;;;;;;;;;;;21.74;42.78;102262.03;4995283;28;19941;-81
2022/06/04 13:02:36;;;;;;;;;;;;;;;21.76;42.95;102259.41;4995116;28;20431;-79
2022/06/04 13:05:16;;;;;;;;;;;;;;;21.76;42.83;102267.28;4995055;28;19985;-84